Time;durP1;ratioP1;P1;durP2;ratioP2;P2;SDS_P1;SDS_P2;PMS_P1;PMS_P2;Temp;Humidity;BMP_temperature;BMP_pressure;BME280_temperature;BME280_humidity;BME280_pressure;Samples;Min_cycle;Max_cycle;Signal;HPM_P1;HPM_P2
2023/06/09 00:01:42;;;;;;;;;20.33;19.33;;;;;25.50;61.56;100726.59;5007303;28;64974;-77
2023/06/09 00:04:09;;;;;;;;;22.67;19.67;;;;;25.47;61.78;100715.97;5025465;28;45550;-77
2023/06/09 00:06:35;;;;;;;;;17.33;17.33;;;;;25.45;62.01;100721.44;5018747;28;45613;-77
2023/06/09 00:09:01;;;;;;;;;20.33;18.67;;;;;25.42;62.53;100718.03;5018918;28;45461;-76
2023/06/09 00:11:26;;;;;;;;;21.33;20.00;;;;;25.36;62.58;100711.13;5011066;28;45487;-76
2023/06/09 00:13:53;;;;;;;;;19.67;17.00;;;;;25.31;63.46;100708.66;5016223;28;45800;-77
2023/06/09 00:16:18;;;;;;;;;22.33;20.33;;;;;25.29;62.88;100706.97;5002202;28;46598;-76
2023/06/09 00:18:45;;;;;;;;;22.33;19.00;;;;;25.23;63.30;100705.47;5017134;28;65091;-76
2023/06/09 00:21:15;;;;;;;;;19.67;18.33;;;;;25.23;63.91;100710.00;5014613;28;45438;-76
2023/06/09 00:23:44;;;;;;;;;18.00;16.00;;;;;25.21;64.20;100711.94;5012909;28;45314;-76
2023/06/09 00:26:09;;;;;;;;;21.33;20.33;;;;;25.18;63.92;100706.66;5016219;28;45866;-76
2023/06/09 00:28:35;;;;;;;;;20.33;20.33;;;;;25.15;64.56;100706.84;5019105;28;45449;-76
2023/06/09 00:31:01;;;;;;;;;20.00;17.33;;;;;25.13;64.23;100711.44;5013987;28;45572;-77
2023/06/09 00:33:26;;;;;;;;;19.33;18.33;;;;;25.10;64.45;100717.88;5018602;28;45603;-77
2023/06/09 00:35:51;;;;;;;;;18.00;17.33;;;;;25.06;64.90;100718.97;5020594;28;58012;-76
2023/06/09 00:38:17;;;;;;;;;19.00;18.67;;;;;25.04;64.75;100710.94;5027810;28;60564;-77
2023/06/09 00:40:42;;;;;;;;;20.00;16.67;;;;;25.02;65.74;100701.13;5018599;28;63435;-78
2023/06/09 00:43:07;;;;;;;;;18.67;18.00;;;;;24.98;65.30;100704.94;5013859;28;61438;-77
2023/06/09 00:45:33;;;;;;;;;25.00;20.33;;;;;24.94;65.29;100693.44;5010595;28;73625;-76
2023/06/09 00:47:58;;;;;;;;;23.67;20.00;;;;;24.91;65.76;100690.88;5012325;28;64210;-76
2023/06/09 00:50:24;;;;;;;;;17.33;16.33;;;;;24.89;66.56;100692.78;5017432;28;64391;-76
2023/06/09 00:52:51;;;;;;;;;18.00;17.33;;;;;24.87;66.54;100696.50;5004319;28;45626;-78
2023/06/09 00:55:17;;;;;;;;;18.33;18.33;;;;;24.82;66.52;100692.25;5015948;28;46761;-76
2023/06/09 00:57:43;;;;;;;;;21.00;19.00;;;;;24.79;66.92;100688.81;5012391;28;45854;-76
2023/06/09 01:00:11;;;;;;;;;25.00;24.33;;;;;24.76;67.26;100686.25;5014785;28;45713;-76
2023/06/09 01:02:37;;;;;;;;;21.00;19.00;;;;;24.72;66.92;100673.88;5012461;28;45436;-76
2023/06/09 01:05:03;;;;;;;;;18.33;17.33;;;;;24.70;67.97;100683.84;5014271;28;45830;-76
2023/06/09 01:07:38;;;;;;;;;23.67;19.33;;;;;24.67;67.87;100676.81;5013299;28;45424;-76
2023/06/09 01:10:09;;;;;;;;;22.00;20.00;;;;;24.63;67.92;100677.03;5012136;28;45567;-76
2023/06/09 01:12:55;;;;;;;;;21.00;21.00;;;;;24.60;68.12;100671.75;5007684;28;45533;-75
2023/06/09 01:15:23;;;;;;;;;21.33;20.00;;;;;24.55;68.84;100680.09;5002764;28;47336;-76
2023/06/09 01:17:56;;;;;;;;;20.33;20.33;;;;;24.54;68.88;100675.66;5010582;28;46489;-76
2023/06/09 01:20:49;;;;;;;;;17.33;17.33;;;;;24.51;69.12;100674.00;4995479;28;45437;-77
2023/06/09 01:23:22;;;;;;;;;19.67;17.00;;;;;24.47;69.64;100666.97;4986103;28;45656;-75
2023/06/09 01:25:50;;;;;;;;;16.67;16.67;;;;;24.43;70.01;100665.38;4991977;28;45518;-76
2023/06/09 01:28:21;;;;;;;;;20.33;20.00;;;;;24.41;69.56;100661.91;5012567;28;45939;-77
2023/06/09 01:30:49;;;;;;;;;21.33;19.00;;;;;24.39;70.26;100661.06;5013169;28;45444;-77
2023/06/09 01:33:24;;;;;;;;;21.00;20.00;;;;;24.36;70.28;100655.84;5010640;28;47005;-76
2023/06/09 01:35:51;;;;;;;;;19.33;17.67;;;;;24.34;70.27;100659.50;5010867;28;47351;-75
2023/06/09 01:38:18;;;;;;;;;20.00;18.00;;;;;24.31;70.59;100656.03;4995388;28;45493;-76
2023/06/09 01:40:44;;;;;;;;;20.33;20.00;;;;;24.28;70.82;100660.69;4994934;28;45445;-76
2023/06/09 01:43:09;;;;;;;;;25.00;21.00;;;;;24.25;71.34;100652.75;5011387;28;45549;-75
2023/06/09 01:45:34;;;;;;;;;20.67;19.67;;;;;24.22;71.67;100652.91;5013108;28;45516;-76
2023/06/09 01:48:17;;;;;;;;;18.67;18.67;;;;;24.19;71.77;100658.47;5014043;28;45389;-75
2023/06/09 01:50:55;;;;;;;;;21.67;20.67;;;;;24.17;72.16;100652.25;5013469;28;45352;-75
2023/06/09 01:53:32;;;;;;;;;20.33;19.33;;;;;24.15;72.02;100656.84;4995966;28;45663;-76
2023/06/09 01:56:08;;;;;;;;;15.33;15.33;;;;;24.11;72.14;100648.03;4995373;28;46480;-77
2023/06/09 01:58:37;;;;;;;;;20.33;20.33;;;;;24.12;72.74;100648.88;5009978;28;45491;-74
2023/06/09 02:01:05;;;;;;;;;18.33;17.00;;;;;24.10;72.60;100650.81;4993311;28;45589;-76
2023/06/09 02:03:32;;;;;;;;;20.00;18.00;;;;;24.09;73.22;100654.47;4991202;28;45984;-76
2023/06/09 02:05:58;;;;;;;;;19.67;19.33;;;;;24.03;73.23;100647.53;5009496;28;74270;-74
2023/06/09 02:08:24;;;;;;;;;18.67;18.67;;;;;24.00;73.14;100645.84;4992153;28;45495;-77
2023/06/09 02:10:50;;;;;;;;;19.00;19.00;;;;;23.98;73.53;100652.25;4984249;28;61954;-77
2023/06/09 02:13:17;;;;;;;;;18.33;18.00;;;;;23.93;73.94;100647.09;5012408;28;60722;-74
2023/06/09 02:15:43;;;;;;;;;23.00;19.67;;;;;23.92;74.20;100658.84;5011202;28;45496;-76
2023/06/09 02:18:11;;;;;;;;;20.33;17.67;;;;;23.89;74.17;100645.47;5012730;28;45552;-75
2023/06/09 02:20:38;;;;;;;;;19.33;18.67;;;;;23.86;74.60;100637.50;5011643;28;45523;-76
2023/06/09 02:23:03;;;;;;;;;21.33;15.67;;;;;23.84;74.60;100644.81;5006302;28;45484;-75
2023/06/09 02:25:29;;;;;;;;;20.67;19.33;;;;;23.82;74.83;100648.53;5008139;28;68218;-77
2023/06/09 02:27:54;;;;;;;;;20.00;19.00;;;;;23.79;74.89;100646.84;5014194;28;45483;-74
2023/06/09 02:30:20;;;;;;;;;21.00;18.33;;;;;23.77;75.48;100635.28;5012538;28;51375;-76
2023/06/09 02:32:45;;;;;;;;;18.33;18.00;;;;;23.75;75.73;100631.75;5010048;28;61380;-77
2023/06/09 02:35:10;;;;;;;;;19.33;18.67;;;;;23.73;75.63;100625.56;5010606;28;72058;-75
2023/06/09 02:37:36;;;;;;;;;21.33;18.33;;;;;23.70;75.48;100633.78;5011655;28;45454;-77
2023/06/09 02:40:02;;;;;;;;;19.00;18.00;;;;;23.67;75.92;100628.56;4992044;28;45453;-76
2023/06/09 02:42:27;;;;;;;;;22.33;19.00;;;;;23.63;76.16;100630.50;5010733;28;45679;-76
2023/06/09 02:44:52;;;;;;;;;22.33;19.67;;;;;23.58;76.54;100627.13;5010220;28;61573;-75
2023/06/09 02:47:17;;;;;;;;;20.33;19.33;;;;;23.57;76.64;100625.38;5012405;28;63054;-77
2023/06/09 02:49:43;;;;;;;;;20.00;19.33;;;;;23.52;76.54;100624.72;5011733;28;61165;-76
2023/06/09 02:52:09;;;;;;;;;22.00;20.33;;;;;23.49;76.97;100631.13;5010418;28;45381;-75
2023/06/09 02:54:35;;;;;;;;;17.00;17.00;;;;;23.47;77.17;100627.59;5011688;28;47634;-76
2023/06/09 02:57:01;;;;;;;;;21.33;20.33;;;;;23.47;77.20;100624.03;4994276;28;45901;-76
2023/06/09 02:59:26;;;;;;;;;19.67;19.67;;;;;23.43;77.47;100623.31;5012587;28;51148;-77
2023/06/09 03:01:52;;;;;;;;;23.33;20.33;;;;;23.38;77.60;100621.75;5006397;28;45455;-75
2023/06/09 03:04:17;;;;;;;;;21.00;20.67;;;;;23.37;77.79;100620.88;5012523;28;46582;-77
2023/06/09 03:06:43;;;;;;;;;21.00;18.33;;;;;23.31;77.54;100618.47;5012029;28;45412;-75
2023/06/09 03:09:10;;;;;;;;;19.00;17.00;;;;;23.30;78.14;100624.81;5012387;28;45420;-76
2023/06/09 03:11:36;;;;;;;;;21.33;17.67;;;;;23.26;78.60;100621.38;5009570;28;45633;-77
2023/06/09 03:14:01;;;;;;;;;18.67;18.33;;;;;23.24;78.60;100634.03;5009160;28;46489;-76
2023/06/09 03:16:27;;;;;;;;;19.00;17.33;;;;;23.21;78.59;100631.47;5011439;28;60277;-77
2023/06/09 03:18:53;;;;;;;;;21.33;20.67;;;;;23.19;79.00;100627.13;5012973;28;45476;-76
2023/06/09 03:21:23;;;;;;;;;23.67;19.00;;;;;23.16;79.25;100628.09;5009115;28;45653;-77
2023/06/09 03:23:48;;;;;;;;;20.00;19.00;;;;;23.12;79.35;100621.13;5009459;28;45740;-76
2023/06/09 03:26:14;;;;;;;;;19.33;19.00;;;;;23.11;79.38;100626.56;5007988;28;45500;-76
2023/06/09 03:28:39;;;;;;;;;18.00;17.67;;;;;23.10;79.55;100627.50;5012628;28;45421;-77
2023/06/09 03:31:06;;;;;;;;;20.67;18.67;;;;;23.05;79.17;100621.44;5005381;28;56821;-77
2023/06/09 03:33:31;;;;;;;;;23.67;19.00;;;;;23.03;79.42;100623.34;5012010;28;46117;-76
2023/06/09 03:35:56;;;;;;;;;17.67;17.67;;;;;22.98;79.23;100620.84;5012217;28;45658;-76
2023/06/09 03:38:22;;;;;;;;;20.33;18.00;;;;;22.94;78.49;100627.31;5008237;28;61678;-78
2023/06/09 03:40:48;;;;;;;;;19.00;16.67;;;;;22.87;78.37;100623.09;5008153;28;63038;-77
2023/06/09 03:43:13;;;;;;;;;19.33;16.67;;;;;22.83;78.61;100618.78;5009271;28;47956;-77
2023/06/09 03:45:38;;;;;;;;;22.33;21.00;;;;;22.81;79.37;100620.69;5011239;28;68579;-77
2023/06/09 03:48:05;;;;;;;;;20.33;19.67;;;;;22.76;79.98;100623.56;5012220;28;45505;-75
2023/06/09 03:50:31;;;;;;;;;16.33;16.33;;;;;22.73;80.55;100621.00;5010065;28;46759;-77
2023/06/09 03:52:56;;;;;;;;;22.33;20.67;;;;;22.69;81.16;100622.97;5003692;28;46617;-76
2023/06/09 03:55:22;;;;;;;;;19.00;17.33;;;;;22.64;81.24;100607.94;5011950;28;59932;-77
2023/06/09 03:57:48;;;;;;;;;20.33;17.67;;;;;22.63;81.63;100616.94;5008947;28;45580;-75
2023/06/09 04:00:15;;;;;;;;;19.33;19.33;;;;;22.62;81.84;100623.28;5015251;28;45444;-76
2023/06/09 04:02:41;;;;;;;;;20.33;19.33;;;;;22.61;81.98;100625.09;5011301;28;46357;-77
2023/06/09 04:05:06;;;;;;;;;21.33;18.33;;;;;22.58;82.33;100619.81;5015631;28;45444;-77
2023/06/09 04:07:32;;;;;;;;;20.67;20.67;;;;;22.58;82.79;100624.34;5014036;28;45560;-77
2023/06/09 04:09:57;;;;;;;;;19.33;17.67;;;;;22.54;82.66;100615.53;5015905;28;45464;-76
2023/06/09 04:12:23;;;;;;;;;22.33;20.00;;;;;22.54;83.15;100620.03;5010173;28;46395;-76
2023/06/09 04:14:48;;;;;;;;;22.67;17.33;;;;;22.52;83.18;100614.69;5008496;28;67070;-77
2023/06/09 04:17:13;;;;;;;;;25.50;19.25;;;;;22.50;83.13;100616.59;5014183;28;64187;-76
2023/06/09 04:19:38;;;;;;;;;19.50;18.75;;;;;22.49;83.58;100621.09;5014531;28;61684;-76
2023/06/09 04:22:07;;;;;;;;;20.67;19.33;;;;;22.48;84.08;100616.66;5010400;28;60261;-76
2023/06/09 04:24:34;;;;;;;;;20.00;17.33;;;;;22.46;84.44;100618.53;5014836;28;45561;-76
2023/06/09 04:27:01;;;;;;;;;22.00;20.67;;;;;22.47;84.27;100616.72;5017704;28;45457;-78
2023/06/09 04:29:28;;;;;;;;;23.67;19.67;;;;;22.46;84.43;100623.03;5013076;28;45380;-77
2023/06/09 04:31:58;;;;;;;;;20.33;17.00;;;;;22.47;85.00;100622.97;5011791;28;47168;-78
2023/06/09 04:34:28;;;;;;;;;18.33;17.00;;;;;22.47;84.99;100624.78;5013300;28;45497;-76
2023/06/09 04:36:55;;;;;;;;;20.67;19.33;;;;;22.46;85.72;100626.59;5014021;28;45790;-78
2023/06/09 04:39:21;;;;;;;;;18.33;18.33;;;;;22.46;85.68;100631.97;5015061;28;45671;-75
2023/06/09 04:41:47;;;;;;;;;19.75;18.50;;;;;22.48;85.91;100626.56;5011255;28;45567;-78
2023/06/09 04:44:13;;;;;;;;;17.33;15.67;;;;;22.49;85.74;100631.88;5014749;28;45605;-77
2023/06/09 04:46:39;;;;;;;;;15.50;15.25;;;;;22.49;85.73;100625.63;5017429;28;45448;-76
2023/06/09 04:49:10;;;;;;;;;22.00;20.33;;;;;22.51;85.64;100631.78;5015081;28;45508;-76
2023/06/09 04:51:46;;;;;;;;;19.67;18.67;;;;;22.54;85.61;100638.88;5010235;28;45453;-75
2023/06/09 04:54:13;;;;;;;;;21.33;18.33;;;;;22.54;86.10;100629.00;5013831;28;45549;-76
2023/06/09 04:56:40;;;;;;;;;20.33;16.33;;;;;22.56;85.76;100632.47;5014492;28;45417;-78
2023/06/09 04:59:06;;;;;;;;;15.33;15.33;;;;;22.58;86.07;100644.03;5006831;28;45482;-77
2023/06/09 05:01:33;;;;;;;;;18.33;18.33;;;;;22.58;86.01;100640.47;5010686;28;45893;-76
2023/06/09 05:04:00;;;;;;;;;23.33;17.67;;;;;22.58;86.09;100637.78;5011381;28;45483;-77
2023/06/09 05:06:25;;;;;;;;;18.00;17.00;;;;;22.61;85.97;100640.38;5013244;28;45317;-76
2023/06/09 05:08:51;;;;;;;;;20.67;17.67;;;;;22.60;86.28;100639.50;5012138;28;45767;-76
2023/06/09 05:11:16;;;;;;;;;19.33;17.67;;;;;22.62;86.28;100631.34;4993329;28;45989;-77
2023/06/09 05:13:42;;;;;;;;;21.33;18.00;;;;;22.63;86.23;100636.66;5013667;28;45658;-75
2023/06/09 05:16:07;;;;;;;;;18.33;18.33;;;;;22.63;86.19;100631.28;5014220;28;65226;-75
2023/06/09 05:18:32;;;;;;;;;20.67;18.67;;;;;22.66;86.15;100638.34;5010914;28;61503;-77
2023/06/09 05:20:58;;;;;;;;;17.33;16.00;;;;;22.68;86.53;100642.72;5011040;28;65124;-76
2023/06/09 05:23:23;;;;;;;;;21.33;18.00;;;;;22.68;86.49;100644.53;5013012;28;45427;-77
2023/06/09 05:25:49;;;;;;;;;22.33;21.33;;;;;22.70;86.33;100638.16;5015851;28;45452;-77
2023/06/09 05:28:14;;;;;;;;;19.00;16.00;;;;;22.71;86.84;100644.44;5014085;28;45474;-76
2023/06/09 05:30:40;;;;;;;;;18.67;18.67;;;;;22.72;86.30;100647.03;5013957;28;47290;-78
2023/06/09 05:33:05;;;;;;;;;18.67;15.67;;;;;22.72;86.41;100638.09;5010251;28;45478;-77
2023/06/09 05:35:31;;;;;;;;;24.00;18.33;;;;;22.73;86.22;100645.22;5014198;28;45472;-77
2023/06/09 05:37:56;;;;;;;;;16.33;16.33;;;;;22.73;86.25;100645.22;5008763;28;45450;-76
2023/06/09 05:40:22;;;;;;;;;21.67;19.00;;;;;22.77;86.63;100644.16;5009074;28;65164;-75
2023/06/09 05:42:47;;;;;;;;;19.67;18.00;;;;;22.78;86.50;100648.59;5011224;28;45475;-76
2023/06/09 05:45:13;;;;;;;;;23.33;22.67;;;;;22.78;86.68;100645.91;5013751;28;45455;-77
2023/06/09 05:47:38;;;;;;;;;25.00;19.00;;;;;22.80;86.53;100649.44;5007234;28;45353;-77
2023/06/09 05:50:05;;;;;;;;;21.00;20.00;;;;;22.84;86.39;100653.72;4996083;28;46163;-75
2023/06/09 05:52:30;;;;;;;;;17.67;16.67;;;;;22.85;86.14;100657.28;5009369;28;45470;-77
2023/06/09 05:54:56;;;;;;;;;20.00;19.00;;;;;22.88;86.25;100657.19;5011062;28;63395;-76
2023/06/09 05:57:22;;;;;;;;;20.33;18.33;;;;;22.91;85.90;100662.47;5013942;28;46959;-75
2023/06/09 05:59:47;;;;;;;;;20.67;18.67;;;;;22.91;85.87;100659.78;5013718;28;46621;-75
2023/06/09 06:02:13;;;;;;;;;19.00;16.67;;;;;22.93;85.71;100650.66;5004761;28;65958;-76
2023/06/09 06:04:39;;;;;;;;;17.00;15.33;;;;;22.95;85.92;100651.47;5014547;28;45668;-73
2023/06/09 06:07:04;;;;;;;;;18.67;17.00;;;;;22.99;85.96;100663.00;5014204;28;45620;-73
2023/06/09 06:09:29;;;;;;;;;20.67;18.33;;;;;22.99;85.76;100660.31;5014104;28;46488;-72
2023/06/09 06:11:55;;;;;;;;;18.33;17.00;;;;;23.04;86.11;100658.28;5002395;28;45620;-73
2023/06/09 06:14:20;;;;;;;;;22.67;17.67;;;;;23.07;85.93;100660.88;5014847;28;46191;-74
2023/06/09 06:16:46;;;;;;;;;19.67;18.00;;;;;23.10;85.90;100666.09;5014768;28;45480;-74
2023/06/09 06:19:11;;;;;;;;;16.67;16.67;;;;;23.13;85.17;100657.03;5011760;28;55118;-74
2023/06/09 06:21:37;;;;;;;;;19.00;17.33;;;;;23.15;85.61;100660.50;5015146;28;45531;-75
2023/06/09 06:24:03;;;;;;;;;20.00;18.00;;;;;23.17;85.38;100651.44;5004138;28;45500;-75
2023/06/09 06:26:29;;;;;;;;;19.00;18.00;;;;;23.21;85.14;100646.78;5009280;28;45618;-74
2023/06/09 06:28:54;;;;;;;;;17.67;17.67;;;;;23.23;85.33;100651.16;5012878;28;46230;-74
2023/06/09 06:31:20;;;;;;;;;20.00;19.00;;;;;23.29;85.00;100643.75;5016080;28;45368;-74
2023/06/09 06:33:45;;;;;;;;;18.00;17.67;;;;;23.31;85.04;100645.41;5011086;28;45572;-75
2023/06/09 06:36:11;;;;;;;;;20.33;18.67;;;;;23.35;84.97;100655.13;5010907;28;45389;-74
2023/06/09 06:38:37;;;;;;;;;22.67;19.67;;;;;23.39;84.59;100647.78;5010647;28;47467;-74
2023/06/09 06:41:04;;;;;;;;;19.00;17.33;;;;;23.42;84.36;100650.31;5009909;28;68240;-75
2023/06/09 06:43:29;;;;;;;;;20.67;17.67;;;;;23.44;83.89;100649.31;5012952;28;45817;-83
2023/06/09 06:45:55;;;;;;;;;17.67;17.67;;;;;23.47;84.38;100649.16;4969120;28;45474;-77
2023/06/09 06:48:21;;;;;;;;;23.33;20.33;;;;;23.50;84.11;100651.75;5010135;28;69339;-78
2023/06/09 06:50:46;;;;;;;;;18.33;16.00;;;;;23.52;83.96;100649.84;5005538;28;45548;-75
2023/06/09 06:53:12;;;;;;;;;19.00;18.33;;;;;23.58;84.51;100658.59;5012827;28;63077;-75
2023/06/09 06:55:37;;;;;;;;;16.67;16.67;;;;;23.60;84.01;100648.63;5011899;28;45526;-75
2023/06/09 06:58:02;;;;;;;;;17.00;16.33;;;;;23.63;83.96;100653.91;5010038;28;47310;-75
2023/06/09 07:00:28;;;;;;;;;15.67;14.00;;;;;23.67;83.75;100661.78;5005948;28;57652;-75
2023/06/09 07:02:53;;;;;;;;;14.67;13.33;;;;;23.70;83.71;100656.25;5010787;28;45512;-75
2023/06/09 07:05:19;;;;;;;;;18.67;15.33;;;;;23.75;83.33;100650.63;5010770;28;45496;-75
2023/06/09 07:07:45;;;;;;;;;17.33;15.67;;;;;23.78;82.76;100654.06;5011038;28;47176;-76
2023/06/09 07:10:11;;;;;;;;;12.67;12.67;;;;;23.84;82.28;100649.34;5009461;28;45880;-76
2023/06/09 07:12:36;;;;;;;;;18.67;18.67;;;;;23.87;81.92;100657.28;5018851;28;45543;-76
2023/06/09 07:15:03;;;;;;;;;19.33;17.67;;;;;23.90;81.47;100662.53;5010674;28;45643;-74
2023/06/09 07:17:28;;;;;;;;;17.67;16.00;;;;;23.94;80.85;100658.75;5011387;28;47699;-75
2023/06/09 07:19:53;;;;;;;;;22.00;17.67;;;;;23.99;80.86;100651.31;5010649;28;45407;-75
2023/06/09 07:22:19;;;;;;;;;16.33;15.00;;;;;24.02;80.90;100656.53;5004471;28;45786;-75
2023/06/09 07:24:44;;;;;;;;;16.67;14.67;;;;;24.07;80.80;100659.03;5010959;28;45467;-75
2023/06/09 07:27:10;;;;;;;;;18.00;16.00;;;;;24.12;80.52;100659.69;5008494;28;69890;-75
2023/06/09 07:29:35;;;;;;;;;20.33;17.00;;;;;24.14;80.54;100661.38;4994553;28;45707;-75
2023/06/09 07:32:02;;;;;;;;;13.33;13.33;;;;;24.18;80.43;100671.09;5011257;28;45496;-74
2023/06/09 07:34:28;;;;;;;;;15.67;15.67;;;;;24.21;79.47;100670.03;5015519;28;45497;-76
2023/06/09 07:36:54;;;;;;;;;15.33;15.33;;;;;24.25;79.75;100675.22;5007090;28;47639;-76
2023/06/09 07:39:20;;;;;;;;;17.67;17.00;;;;;24.31;79.26;100679.44;5008135;28;45425;-76
2023/06/09 07:41:46;;;;;;;;;17.33;16.00;;;;;24.34;79.06;100679.28;5010209;28;45434;-78
2023/06/09 07:44:11;;;;;;;;;16.33;16.00;;;;;24.38;78.55;100678.22;5011093;28;45496;-75
2023/06/09 07:46:36;;;;;;;;;18.00;18.00;;;;;24.41;78.44;100672.69;5007976;28;46648;-75
2023/06/09 07:49:02;;;;;;;;;19.33;17.33;;;;;24.46;78.97;100673.34;5009316;28;68660;-75
2023/06/09 07:51:29;;;;;;;;;15.00;15.00;;;;;24.51;78.54;100678.50;5010396;28;45482;-75
2023/06/09 07:53:54;;;;;;;;;14.33;13.33;;;;;24.54;78.05;100665.72;5009863;28;45546;-74
2023/06/09 07:56:20;;;;;;;;;17.33;15.33;;;;;24.60;77.49;100664.53;5013111;28;45843;-75
2023/06/09 07:58:45;;;;;;;;;19.00;16.00;;;;;24.66;77.18;100666.06;5015974;28;45486;-76
2023/06/09 08:01:11;;;;;;;;;24.33;20.33;;;;;24.70;77.81;100662.25;5011756;28;45347;-74
2023/06/09 08:03:37;;;;;;;;;14.67;14.67;;;;;24.76;76.99;100667.34;4996097;28;45630;-75
2023/06/09 08:06:03;;;;;;;;;16.00;14.67;;;;;24.82;77.13;100664.31;5004518;28;46746;-74
2023/06/09 08:08:31;;;;;;;;;15.33;15.33;;;;;24.87;77.00;100667.66;5010229;28;45506;-75
2023/06/09 08:10:57;;;;;;;;;13.00;13.00;;;;;24.92;77.44;100657.50;5014064;28;45643;-76
2023/06/09 08:13:22;;;;;;;;;17.00;17.00;;;;;24.98;76.94;100659.91;5010736;28;45595;-75
2023/06/09 08:15:48;;;;;;;;;21.00;18.00;;;;;25.04;76.89;100658.72;5148901;22;46018;-75
2023/06/09 08:18:13;;;;;;;;;15.00;15.00;;;;;25.09;76.92;100645.88;5081865;27;46094;-75
2023/06/09 08:20:41;;;;;;;;;18.00;18.00;;;;;25.14;76.31;100648.31;5089692;27;59674;-75
2023/06/09 08:23:10;;;;;;;;;14.00;14.00;;;;;25.18;77.13;100644.50;5091015;27;45916;-75
2023/06/09 08:25:35;;;;;;;;;18.00;16.67;;;;;25.22;75.99;100641.56;5088123;27;46746;-76
2023/06/09 08:28:01;;;;;;;;;17.00;14.33;;;;;25.28;76.15;100637.66;5082515;27;45663;-76
2023/06/09 08:30:27;;;;;;;;;17.67;17.67;;;;;25.31;77.11;100642.94;5079666;27;45572;-75
2023/06/09 08:32:52;;;;;;;;;15.67;15.33;;;;;25.37;76.40;100647.13;5080724;27;45656;-76
2023/06/09 08:35:17;;;;;;;;;20.67;15.67;;;;;25.41;76.88;100636.06;5083442;27;50155;-76
2023/06/09 08:37:44;;;;;;;;;15.33;15.00;;;;;25.45;76.31;100640.34;5079961;27;65978;-75
2023/06/09 08:40:09;;;;;;;;;22.00;20.00;;;;;25.51;75.10;100641.84;5090510;27;45527;-77
2023/06/09 08:42:36;;;;;;;;;15.67;15.67;;;;;25.54;76.40;100636.28;5088602;27;45603;-77
2023/06/09 08:45:04;;;;;;;;;17.67;16.00;;;;;25.57;76.05;100637.00;5091840;27;47315;-75
2023/06/09 08:47:31;;;;;;;;;19.00;16.00;;;;;25.62;75.67;100631.34;5094432;27;45519;-75
2023/06/09 08:49:59;;;;;;;;;18.67;17.33;;;;;25.66;75.75;100627.47;5086980;27;45542;-75
2023/06/09 08:52:27;;;;;;;;;14.67;14.67;;;;;25.71;75.68;100632.63;5086984;27;45436;-76
2023/06/09 08:54:59;;;;;;;;;13.00;13.00;;;;;25.75;76.35;100627.00;5086797;27;46634;-76
2023/06/09 08:57:25;;;;;;;;;16.67;15.67;;;;;25.79;75.61;100623.19;5084026;27;45733;-75
2023/06/09 08:59:50;;;;;;;;;18.67;18.67;;;;;25.82;76.61;100620.28;5090502;27;45430;-75
2023/06/09 09:02:16;;;;;;;;;16.00;15.33;;;;;25.87;77.17;100620.03;5089861;27;45437;-76
2023/06/09 09:04:42;;;;;;;;;16.00;16.00;;;;;25.91;76.85;100624.34;5082124;27;46651;-75
2023/06/09 09:07:08;;;;;;;;;13.33;13.33;;;;;25.97;76.81;100621.28;5088273;27;45956;-75
2023/06/09 09:09:33;;;;;;;;;18.00;17.00;;;;;26.01;76.94;100622.84;5092739;27;45408;-76
2023/06/09 09:11:59;;;;;;;;;16.33;15.00;;;;;26.06;76.86;100628.00;5082268;27;45644;-76
2023/06/09 09:14:25;;;;;;;;;17.67;17.33;;;;;26.08;76.87;100626.94;5094234;27;46425;-76
2023/06/09 09:16:50;;;;;;;;;16.33;14.33;;;;;26.16;76.47;100631.06;5092515;27;69295;-77
2023/06/09 09:19:26;;;;;;;;;17.00;17.00;;;;;26.20;76.47;100627.22;5063880;27;45461;-77
2023/06/09 09:21:53;;;;;;;;;15.33;14.00;;;;;26.24;75.49;100615.25;5093727;27;45497;-77
2023/06/09 09:24:18;;;;;;;;;18.67;16.67;;;;;26.28;75.57;100617.69;5088033;27;46602;-77
2023/06/09 09:26:44;;;;;;;;;15.67;12.33;;;;;26.33;75.05;100620.16;5086013;27;62786;-74
2023/06/09 09:29:09;;;;;;;;;17.00;13.33;;;;;26.38;74.96;100612.63;5078319;27;45573;-75
2023/06/09 09:31:39;;;;;;;;;17.00;17.00;;;;;26.44;74.44;100609.59;5087466;27;46012;-76
2023/06/09 09:34:04;;;;;;;;;20.00;17.00;;;;;26.50;75.02;100602.94;5101900;27;46350;-77
2023/06/09 09:36:30;;;;;;;;;18.67;16.00;;;;;26.53;76.33;100603.66;5083771;27;45920;-77
2023/06/09 09:38:56;;;;;;;;;21.67;17.67;;;;;26.57;76.11;100598.91;5084353;27;45693;-78
2023/06/09 09:41:22;;;;;;;;;16.00;15.00;;;;;26.63;74.88;100598.53;5088562;27;45551;-76
2023/06/09 09:43:47;;;;;;;;;17.67;16.00;;;;;26.66;75.67;100606.50;5082704;27;46528;-78
2023/06/09 09:46:13;;;;;;;;;15.00;14.00;;;;;26.69;75.31;100603.59;5091471;27;68969;-76
2023/06/09 09:48:39;;;;;;;;;18.33;17.33;;;;;26.73;74.16;100596.16;5102233;27;46521;-76
2023/06/09 09:51:05;;;;;;;;;16.67;16.67;;;;;26.81;74.44;100596.56;5089926;27;45510;-77
2023/06/09 09:53:31;;;;;;;;;18.00;16.00;;;;;26.85;74.32;100592.72;5082101;27;45709;-78
2023/06/09 09:56:00;;;;;;;;;16.67;16.67;;;;;26.89;73.66;100589.72;5087226;27;45508;-76
2023/06/09 09:58:30;;;;;;;;;18.67;16.00;;;;;26.94;73.96;100583.16;5087246;27;45579;-78
2023/06/09 10:00:58;;;;;;;;;20.00;17.00;;;;;27.00;74.38;100583.63;5096181;27;45623;-76
2023/06/09 10:03:24;;;;;;;;;13.00;13.00;;;;;27.05;73.91;100583.34;5088144;27;45849;-76
2023/06/09 10:05:49;;;;;;;;;15.67;14.00;;;;;27.08;71.87;100578.66;5080396;27;45631;-77
2023/06/09 10:08:22;;;;;;;;;17.33;15.00;;;;;27.18;73.69;100578.97;5088918;27;45511;-78
2023/06/09 10:10:48;;;;;;;;;18.67;17.00;;;;;27.23;71.82;100568.72;5087325;27;45657;-76
2023/06/09 10:13:14;;;;;;;;;15.00;13.67;;;;;27.30;72.20;100572.78;5103141;27;45966;-76
2023/06/09 10:15:42;;;;;;;;;17.00;17.00;;;;;27.37;71.65;100574.13;5086166;27;45399;-77
2023/06/09 10:18:08;;;;;;;;;16.33;16.33;;;;;27.43;72.04;100572.84;5083128;27;45441;-77
2023/06/09 10:20:34;;;;;;;;;15.00;15.00;;;;;27.53;71.11;100565.88;5081968;27;45583;-76
2023/06/09 10:22:59;;;;;;;;;14.00;14.00;;;;;27.64;71.44;100568.78;5086653;27;47780;-76
2023/06/09 10:25:26;;;;;;;;;16.33;14.33;;;;;27.75;70.53;100572.66;5087632;27;45499;-76
2023/06/09 10:27:51;;;;;;;;;17.00;17.00;;;;;27.83;68.89;100568.50;5082698;27;45405;-76
2023/06/09 10:30:18;;;;;;;;;16.00;15.00;;;;;27.90;67.54;100568.97;5088466;27;45407;-77
2023/06/09 10:32:59;;;;;;;;;14.00;14.00;;;;;28.02;66.36;100575.44;5082995;27;47102;-77
2023/06/09 10:35:27;;;;;;;;;15.33;15.33;;;;;28.11;65.59;100564.84;5081787;27;45411;-78
2023/06/09 10:37:53;;;;;;;;;14.33;13.00;;;;;28.23;65.88;100567.72;5082536;27;45748;-77
2023/06/09 10:40:28;;;;;;;;;14.67;14.00;;;;;28.35;64.86;100559.66;5082606;27;46476;-76
2023/06/09 10:43:21;;;;;;;;;17.33;14.33;;;;;28.47;64.00;100559.81;5085691;27;45789;-77
2023/06/09 10:45:52;;;;;;;;;14.00;14.00;;;;;28.61;65.00;100563.31;5070498;27;45751;-76
2023/06/09 10:48:49;;;;;;;;;17.33;15.33;;;;;28.77;64.01;100565.00;5085264;27;45442;-75
2023/06/09 10:51:26;;;;;;;;;13.00;13.00;;;;;28.91;63.29;100570.31;5089322;27;45618;-75
2023/06/09 10:54:07;;;;;;;;;12.67;12.67;;;;;29.03;62.26;100571.31;5085562;27;46274;-74
2023/06/09 10:56:40;;;;;;;;;14.00;14.00;;;;;29.14;62.10;100574.19;5087367;27;45495;-75
2023/06/09 10:59:06;;;;;;;;;13.33;11.67;;;;;29.26;61.97;100569.72;5090966;27;45524;-76
2023/06/09 11:01:34;;;;;;;;;14.00;14.00;;;;;29.38;61.01;100566.13;5078911;27;45591;-75
2023/06/09 11:04:00;;;;;;;;;22.33;20.67;;;;;29.49;60.14;100566.22;5089486;27;47377;-76
2023/06/09 11:06:26;;;;;;;;;33.33;30.00;;;;;29.54;60.20;100571.38;5091633;27;67319;-76
2023/06/09 11:09:08;;;;;;;;;64.50;48.50;;;;;29.59;58.89;100563.75;5078667;27;45701;-73